Airfield :
LOGIN :

Register | Disclaimer

   EN    FR    IT 

 










Legend :    VFR   Marginal VFR   IFR   Intensive IFR   Very Intensive IFR
Visi :
Ceiling :
>= 8 km
>= 3000ft
5 to 8 km
1000 to 3000 ft
1500m to 5 km
500 to 1000 ft
800 to 1500m
200 to 500 ft
< 800m
< 200 ft
Symbols :   Thunderstorms  Fog  Heavy snow  Heavy precipitations  Wind > 20 kt
SIGMETs :     Misc.  Thunderstorms  Icing  Turbulence  Mountain Waves  Volcanic Ashes






- Airport Elevation : 408 ft
- IATA code : FKB


EDSB - Karlsruhe Baden Baden

CURRENT METAR :
  • 191120Z 20010KT 170V230 CAVOK 16/13 Q1009

EXPIRED METARs :
  • 191050Z 21008KT CAVOK 16/13 Q1009
  • 191020Z 21008KT 9999 FEW028 BKN070 15/13 Q1009
  • 190950Z 23007KT 210V270 9999 -SHRA FEW031 14/12 Q1010
  • 190920Z 22008KT CAVOK 14/12 Q1010
  • 190850Z 22010KT CAVOK 14/12 Q1010

TAF TAF EDSB
Valid from the 19 at 12:00 until the 20 at 12:00 UTC


191100Z 1912/2012 21008KT 9999 SCT045
PROB30
TEMPO 1912/1916 VRB03KT 4500 -RA BKN014
BECMG 1916/1919 RA BKN012
TEMPO 1919/2001 2000 SHRA BKN004 BKN015CB
TEMPO 2001/2008 1500 BR BKN002
BECMG 2008/2010 NSW BKN025



MET'MAP, your aeronautical weather chart ! - Copyright ORBIFLY December 2007 - Disclaimer

ORBIFLY MET'MAP TEAM :

Programming & Development : Alexandra Zaïnal
Concept & Development : Baudouin d'Aumeries
Co-Development & Prog : Marc-Olivier Méhu
Technical & hardware support : Manuel Goepfert

Contact : metmap@orbifly.com




SOURCES & CREDITS :

   NOAA